Time;durP1;ratioP1;P1;durP2;ratioP2;P2;SDS_P1;SDS_P2;PMS_P1;PMS_P2;Temp;Humidity;BMP_temperature;BMP_pressure;BME280_temperature;BME280_humidity;BME280_pressure;Samples;Min_cycle;Max_cycle;Signal;HPM_P1;HPM_P2
2022/12/21 00:01:47;;;;;;;76.15;37.67;;;;;;;;;;6229326;23;20004;-92
2022/12/21 00:04:13;;;;;;;73.80;38.08;;;;;;;;;;6199019;23;20028;-93
2022/12/21 00:06:42;;;;;;;75.43;38.95;;;;;;;;;;6192619;23;20008;-94
2022/12/21 00:09:11;;;;;;;69.95;36.75;;;;;;;;;;6193876;23;20312;-94
2022/12/21 00:11:39;;;;;;;91.35;45.35;;;;;;;;;;6193907;23;20016;-95
2022/12/21 00:14:07;;;;;;;74.72;39.28;;;;;;;;;;6195024;23;20083;-95
2022/12/21 00:16:35;;;;;;;80.22;41.55;;;;;;;;;;6197373;23;20083;-94
2022/12/21 00:19:01;;;;;;;80.40;41.13;;;;;;;;;;6198401;23;20000;-94
2022/12/21 00:21:29;;;;;;;79.82;40.53;;;;;;;;;;6213735;23;20008;-93
2022/12/21 00:23:59;;;;;;;71.68;36.63;;;;;;;;;;6216964;23;20019;-94
2022/12/21 00:26:27;;;;;;;75.10;39.22;;;;;;;;;;6207783;23;20005;-95
2022/12/21 00:28:54;;;;;;;74.18;37.63;;;;;;;;;;6194615;23;20004;-94
2022/12/21 00:31:26;;;;;;;81.80;39.40;;;;;;;;;;6194827;23;20063;-94
2022/12/21 00:33:52;;;;;;;80.80;40.53;;;;;;;;;;6194334;23;20017;-94
2022/12/21 00:36:19;;;;;;;83.03;40.38;;;;;;;;;;6193920;23;20001;-93
2022/12/21 00:38:49;;;;;;;77.97;38.65;;;;;;;;;;6194190;23;20009;-94
2022/12/21 00:47:25;;;;;;;75.03;37.15;;;;;;;;;;6239911;22;20099;-96
2022/12/21 00:49:51;;;;;;;73.88;37.88;;;;;;;;;;6228420;23;20008;-95
2022/12/21 00:52:17;;;;;;;75.13;37.90;;;;;;;;;;6226154;23;20000;-94
2022/12/21 00:54:46;;;;;;;73.75;37.95;;;;;;;;;;6225142;23;20016;-94
2022/12/21 00:57:12;;;;;;;70.13;35.58;;;;;;;;;;6226856;23;20268;-93
2022/12/21 01:05:31;;;;;;;66.25;33.65;;;;;;;;;;6248446;22;20050;-94
2022/12/21 01:07:58;;;;;;;77.70;37.67;;;;;;;;;;6222567;23;20137;-94
2022/12/21 01:10:24;;;;;;;69.22;35.55;;;;;;;;;;6223291;23;20020;-94
2022/12/21 01:12:50;;;;;;;72.45;36.97;;;;;;;;;;6225140;23;20028;-94
2022/12/21 01:15:16;;;;;;;77.47;36.80;;;;;;;;;;6229301;23;20016;-92
2022/12/21 01:17:42;;;;;;;67.50;35.92;;;;;;;;;;6229467;23;20418;-94
2022/12/21 01:20:09;;;;;;;65.50;35.15;;;;;;;;;;6243612;22;19992;-93
2022/12/21 01:22:35;;;;;;;65.05;34.83;;;;;;;;;;6235545;23;20000;-94
2022/12/21 01:33:32;;;;;;;74.88;37.42;;;;;;;;;;6239295;22;20028;-94
2022/12/21 01:36:02;;;;;;;79.93;38.95;;;;;;;;;;6221066;23;20453;-93
2022/12/21 01:38:29;;;;;;;70.65;35.53;;;;;;;;;;6221268;23;20004;-94
2022/12/21 01:40:55;;;;;;;68.85;35.13;;;;;;;;;;6222751;23;20031;-95
2022/12/21 01:43:59;;;;;;;69.78;36.95;;;;;;;;;;6223567;23;20012;-93
2022/12/21 01:46:25;;;;;;;74.63;37.53;;;;;;;;;;6155302;23;20001;-93
2022/12/21 01:48:58;;;;;;;72.38;37.05;;;;;;;;;;6138440;23;20009;-95
2022/12/21 01:51:24;;;;;;;65.78;34.65;;;;;;;;;;6187564;23;20413;-93
2022/12/21 01:53:58;;;;;;;68.35;35.22;;;;;;;;;;6231096;23;20000;-94
2022/12/21 01:56:28;;;;;;;74.35;37.33;;;;;;;;;;6233125;23;20042;-93
2022/12/21 01:58:54;;;;;;;71.20;34.85;;;;;;;;;;6230176;23;20019;-94
2022/12/21 02:01:21;;;;;;;69.22;35.03;;;;;;;;;;6229721;23;20453;-91
2022/12/21 02:03:49;;;;;;;72.35;35.28;;;;;;;;;;6231088;23;20038;-92
2022/12/21 02:06:26;;;;;;;70.55;35.70;;;;;;;;;;6230161;23;20390;-93
2022/12/21 02:08:53;;;;;;;75.97;38.55;;;;;;;;;;6225716;23;20011;-95
2022/12/21 02:11:19;;;;;;;73.85;35.63;;;;;;;;;;6226016;23;20004;-94
2022/12/21 02:13:45;;;;;;;79.25;37.53;;;;;;;;;;6221728;23;20012;-94
2022/12/21 02:16:32;;;;;;;70.65;37.55;;;;;;;;;;6225274;23;20005;-94
2022/12/21 02:18:58;;;;;;;77.55;38.55;;;;;;;;;;6222515;23;20000;-94
2022/12/21 02:21:34;;;;;;;74.50;37.33;;;;;;;;;;6221513;23;20014;-94
2022/12/21 02:24:06;;;;;;;70.25;35.42;;;;;;;;;;6211658;23;20016;-93
2022/12/21 02:26:51;;;;;;;93.63;43.05;;;;;;;;;;6245564;22;19988;-92
2022/12/21 02:29:25;;;;;;;70.85;37.00;;;;;;;;;;6239167;23;20210;-93
2022/12/21 02:31:51;;;;;;;90.15;41.97;;;;;;;;;;6225466;23;20028;-94
2022/12/21 02:34:28;;;;;;;78.85;37.88;;;;;;;;;;6222139;23;20020;-96
2022/12/21 02:36:55;;;;;;;77.13;37.33;;;;;;;;;;6223236;23;20032;-96
2022/12/21 02:48:01;;;;;;;73.45;37.75;;;;;;;;;;6245946;22;20357;-95
2022/12/21 02:50:31;;;;;;;73.95;37.60;;;;;;;;;;6220019;23;20012;-94
2022/12/21 02:52:59;;;;;;;84.45;41.33;;;;;;;;;;6221510;23;20154;-93
2022/12/21 02:55:26;;;;;;;78.60;39.13;;;;;;;;;;6224813;23;20043;-95
2022/12/21 02:58:11;;;;;;;83.78;39.38;;;;;;;;;;6250171;23;20004;-94
2022/12/21 03:00:40;;;;;;;82.70;40.60;;;;;;;;;;6225056;23;20008;-94
2022/12/21 03:05:51;;;;;;;98.18;44.15;;;;;;;;;;6258697;23;20050;-94
2022/12/21 03:08:37;;;;;;;86.25;41.00;;;;;;;;;;6224468;23;20000;-94
2022/12/21 03:11:06;;;;;;;82.70;38.88;;;;;;;;;;6223310;23;20004;-94
2022/12/21 03:13:43;;;;;;;101.13;43.58;;;;;;;;;;6227778;23;20004;-95
2022/12/21 03:16:17;;;;;;;88.55;41.60;;;;;;;;;;6242819;23;20004;-93
2022/12/21 03:18:55;;;;;;;115.68;45.17;;;;;;;;;;6238905;23;20377;-95
2022/12/21 03:21:31;;;;;;;89.88;41.30;;;;;;;;;;6227218;23;20015;-94
2022/12/21 03:24:03;;;;;;;97.03;42.65;;;;;;;;;;6226092;23;20008;-94
2022/12/21 03:26:49;;;;;;;85.10;40.90;;;;;;;;;;6226250;23;20008;-96
2022/12/21 03:29:17;;;;;;;100.13;45.55;;;;;;;;;;6226225;23;20004;-93
2022/12/21 03:34:50;;;;;;;103.80;43.13;;;;;;;;;;6250002;23;20031;-94
2022/12/21 03:37:16;;;;;;;97.55;42.47;;;;;;;;;;6227213;23;20004;-96
2022/12/21 03:39:47;;;;;;;82.57;42.05;;;;;;;;;;6227718;23;20008;-95
2022/12/21 03:42:23;;;;;;;124.13;49.60;;;;;;;;;;6223707;23;20000;-95
2022/12/21 03:44:54;;;;;;;129.23;52.05;;;;;;;;;;6227171;23;20008;-95
2022/12/21 03:47:31;;;;;;;96.30;44.50;;;;;;;;;;6226191;23;20023;-95
2022/12/21 03:50:01;;;;;;;124.47;49.28;;;;;;;;;;6223126;23;20004;-95
2022/12/21 03:52:53;;;;;;;99.80;44.60;;;;;;;;;;6201741;23;20008;-96
2022/12/21 03:55:25;;;;;;;127.82;52.95;;;;;;;;;;6222992;23;20323;-95
2022/12/21 03:57:53;;;;;;;106.57;46.75;;;;;;;;;;6226640;23;20004;-95
2022/12/21 04:00:21;;;;;;;98.57;44.83;;;;;;;;;;6201375;23;20012;-95
2022/12/21 04:14:32;;;;;;;95.35;40.90;;;;;;;;;;6266536;22;20039;-95
2022/12/21 04:16:58;;;;;;;91.60;42.55;;;;;;;;;;6201325;23;20022;-95
2022/12/21 04:28:06;;;;;;;94.55;44.45;;;;;;;;;;6188892;23;20382;-94
2022/12/21 04:28:22;;;;;;;131.02;51.92;;;;;;;;;;6206543;23;20019;-93
2022/12/21 04:30:30;;;;;;;112.80;47.88;;;;;;;;;;6197754;23;19993;-95
2022/12/21 04:32:59;;;;;;;135.45;53.10;;;;;;;;;;6170324;23;20013;-95
2022/12/21 04:35:28;;;;;;;102.82;46.80;;;;;;;;;;6163653;23;20009;-93
2022/12/21 04:44:08;;;;;;;120.45;50.88;;;;;;;;;;6096832;23;20321;-94
2022/12/21 04:46:34;;;;;;;98.93;43.55;;;;;;;;;;6090466;23;20543;-92
2022/12/21 04:49:00;;;;;;;125.53;50.88;;;;;;;;;;6161052;23;20009;-94
2022/12/21 04:51:26;;;;;;;100.18;43.80;;;;;;;;;;6192866;23;20505;-94
2022/12/21 04:53:53;;;;;;;127.43;51.63;;;;;;;;;;6189380;23;20012;-92
2022/12/21 04:56:22;;;;;;;112.47;47.72;;;;;;;;;;6190830;23;20059;-92
2022/12/21 04:58:48;;;;;;;117.20;49.60;;;;;;;;;;6190224;23;20382;-93
2022/12/21 05:01:21;;;;;;;125.75;52.08;;;;;;;;;;6191813;23;20056;-94
2022/12/21 05:03:51;;;;;;;100.93;44.67;;;;;;;;;;6178504;23;20080;-95
2022/12/21 05:06:18;;;;;;;108.25;47.22;;;;;;;;;;6170422;23;20015;-95
2022/12/21 05:08:44;;;;;;;129.57;53.35;;;;;;;;;;6198444;23;20001;-95
2022/12/21 05:11:13;;;;;;;84.85;42.42;;;;;;;;;;6199679;23;20021;-95
2022/12/21 05:14:09;;;;;;;91.18;41.95;;;;;;;;;;6215255;23;20009;-94
2022/12/21 05:23:10;;;;;;;113.88;46.90;;;;;;;;;;6244817;22;20345;-91
2022/12/21 05:28:11;;;;;;;100.28;43.92;;;;;;;;;;6244319;22;20031;-92
2022/12/21 05:30:39;;;;;;;84.88;43.00;;;;;;;;;;6221106;23;20031;-95
2022/12/21 05:33:06;;;;;;;110.00;48.13;;;;;;;;;;6220405;23;20012;-93
2022/12/21 05:35:32;;;;;;;143.23;54.35;;;;;;;;;;6221659;23;20012;-93
2022/12/21 05:37:58;;;;;;;96.95;44.42;;;;;;;;;;6226333;23;20007;-94
2022/12/21 05:40:24;;;;;;;112.95;50.47;;;;;;;;;;6227491;23;20008;-93
2022/12/21 05:42:51;;;;;;;127.95;53.50;;;;;;;;;;6224507;23;20012;-93
2022/12/21 05:48:21;;;;;;;114.38;46.88;;;;;;;;;;6253189;22;20499;-94
2022/12/21 06:12:30;;;;;;;84.22;39.33;;;;;;;;;;6226784;22;20051;-95
2022/12/21 06:27:53;;;;;;;94.93;42.85;;;;;;;;;;6243811;22;20113;-93
2022/12/21 06:45:07;;;;;;;70.77;35.23;;;;;;;;;;6249533;23;20015;-95
2022/12/21 07:01:35;;;;;;;72.28;36.75;;;;;;;;;;6229982;22;20028;-92
2022/12/21 07:04:26;;;;;;;67.35;36.35;;;;;;;;;;6220042;23;20008;-91
2022/12/21 07:12:25;;;;;;;75.05;39.97;;;;;;;;;;6238424;22;20034;-93
2022/12/21 07:38:24;;;;;;;83.82;39.67;;;;;;;;;;6242741;22;20067;-91
2022/12/21 08:33:13;;;;;;;92.10;44.28;;;;;;;;;;6229909;23;19999;-94
2022/12/21 08:35:41;;;;;;;100.85;46.38;;;;;;;;;;6200122;22;20016;-92
2022/12/21 08:38:07;;;;;;;90.45;45.05;;;;;;;;;;6194064;23;20023;-89
2022/12/21 08:40:33;;;;;;;94.30;45.40;;;;;;;;;;6190822;23;20004;-86
2022/12/21 08:43:00;;;;;;;90.45;44.92;;;;;;;;;;6200445;23;20005;-85
2022/12/21 08:45:26;;;;;;;98.00;47.70;;;;;;;;;;6190670;23;20005;-87
2022/12/21 08:47:52;;;;;;;77.13;40.95;;;;;;;;;;6191379;23;19989;-88
2022/12/21 08:50:18;;;;;;;91.55;44.80;;;;;;;;;;6187725;23;20096;-86
2022/12/21 08:52:44;;;;;;;90.47;43.95;;;;;;;;;;6189205;23;20000;-88
2022/12/21 08:55:10;;;;;;;94.68;46.80;;;;;;;;;;6189749;23;20450;-88
2022/12/21 08:57:36;;;;;;;79.88;41.05;;;;;;;;;;6190111;23;20008;-88
2022/12/21 09:00:03;;;;;;;84.90;43.90;;;;;;;;;;6188851;23;20036;-87
2022/12/21 09:02:29;;;;;;;70.20;37.30;;;;;;;;;;6215333;23;20000;-89
2022/12/21 09:04:55;;;;;;;83.60;43.85;;;;;;;;;;6189462;23;20445;-88
2022/12/21 09:07:22;;;;;;;68.72;38.90;;;;;;;;;;6187827;23;20000;-89
2022/12/21 09:12:45;;;;;;;68.40;38.70;;;;;;;;;;6237505;22;20024;-85
2022/12/21 09:15:11;;;;;;;71.15;39.75;;;;;;;;;;6217277;23;20091;-86
2022/12/21 09:17:37;;;;;;;71.05;39.45;;;;;;;;;;6217590;23;20260;-78
2022/12/21 09:20:05;;;;;;;72.57;37.60;;;;;;;;;;6222575;23;20008;-88
2022/12/21 09:22:32;;;;;;;80.63;41.28;;;;;;;;;;6219752;23;20433;-86
2022/12/21 09:24:58;;;;;;;76.22;39.38;;;;;;;;;;6217466;23;20587;-85
2022/12/21 09:27:25;;;;;;;71.63;38.67;;;;;;;;;;6216727;23;20000;-86
2022/12/21 09:29:51;;;;;;;71.22;38.28;;;;;;;;;;6217934;23;20087;-91
2022/12/21 09:32:17;;;;;;;68.97;37.80;;;;;;;;;;6220291;23;20011;-92
2022/12/21 09:34:43;;;;;;;71.07;38.00;;;;;;;;;;6220255;23;20012;-91
2022/12/21 09:37:09;;;;;;;62.92;34.38;;;;;;;;;;6220470;23;20004;-91
2022/12/21 09:39:37;;;;;;;63.92;35.30;;;;;;;;;;6220062;23;20046;-91
2022/12/21 09:42:12;;;;;;;62.50;34.92;;;;;;;;;;6220309;23;20418;-90
2022/12/21 09:44:58;;;;;;;67.03;35.67;;;;;;;;;;6218354;23;20587;-92
2022/12/21 09:47:46;;;;;;;69.95;39.10;;;;;;;;;;6221123;23;20000;-92
2022/12/21 09:50:15;;;;;;;71.82;37.33;;;;;;;;;;6218911;23;20058;-91
2022/12/21 09:52:44;;;;;;;64.15;34.40;;;;;;;;;;6218334;23;20083;-90
